Time;durP1;ratioP1;P1;durP2;ratioP2;P2;SDS_P1;SDS_P2;PMS_P1;PMS_P2;Temp;Humidity;BMP_temperature;BMP_pressure;BME280_temperature;BME280_humidity;BME280_pressure;Samples;Min_cycle;Max_cycle;Signal;HPM_P1;HPM_P2
2023/03/04 00:00:13;;;;;;;75.95;40.97;;;;;;;;;;5099406;28;20028;-90
2023/03/04 00:02:39;;;;;;;75.40;40.92;;;;;;;;;;5100564;28;20303;-90
2023/03/04 00:05:05;;;;;;;71.93;39.75;;;;;;;;;;5100628;28;20024;-90
2023/03/04 00:10:54;;;;;;;72.28;39.47;;;;;;;;;;5093284;28;20338;-90
2023/03/04 00:13:21;;;;;;;68.57;38.45;;;;;;;;;;5078566;28;20024;-90
2023/03/04 00:15:47;;;;;;;76.47;41.45;;;;;;;;;;5080068;28;20024;-90
2023/03/04 00:18:13;;;;;;;70.18;40.60;;;;;;;;;;5079832;28;20017;-89
2023/03/04 00:20:39;;;;;;;72.60;40.60;;;;;;;;;;5079936;28;20025;-89
2023/03/04 00:23:06;;;;;;;71.18;41.45;;;;;;;;;;5079633;28;20042;-89
2023/03/04 00:25:32;;;;;;;67.55;38.42;;;;;;;;;;5079873;28;20032;-91
2023/03/04 00:27:58;;;;;;;64.63;38.28;;;;;;;;;;5079673;28;20028;-90
2023/03/04 00:30:24;;;;;;;63.85;39.30;;;;;;;;;;5079817;28;20028;-91
2023/03/04 00:32:50;;;;;;;65.80;38.80;;;;;;;;;;5079749;28;20028;-91
2023/03/04 00:35:16;;;;;;;68.07;39.70;;;;;;;;;;5097211;28;20020;-90
2023/03/04 00:43:50;;;;;;;73.53;40.08;;;;;;;;;;5099893;28;20043;-92
2023/03/04 00:46:16;;;;;;;69.72;40.85;;;;;;;;;;5099633;28;20024;-92
2023/03/04 00:48:42;;;;;;;69.32;39.35;;;;;;;;;;5097922;28;20029;-91
2023/03/04 00:51:08;;;;;;;64.88;37.75;;;;;;;;;;5099664;28;20020;-90
2023/03/04 00:56:51;;;;;;;71.38;39.85;;;;;;;;;;5099353;28;20165;-92
2023/03/04 00:59:17;;;;;;;67.05;38.08;;;;;;;;;;5099370;28;20394;-92
2023/03/04 01:01:43;;;;;;;65.65;38.85;;;;;;;;;;5099468;28;20020;-93
2023/03/04 01:04:09;;;;;;;66.07;38.47;;;;;;;;;;5099116;28;20024;-92
2023/03/04 01:06:35;;;;;;;71.22;41.03;;;;;;;;;;5099343;28;20081;-92
2023/03/04 01:12:05;;;;;;;68.68;39.63;;;;;;;;;;5099098;28;20035;-89
2023/03/04 01:14:31;;;;;;;64.90;39.30;;;;;;;;;;5099106;28;20039;-90
2023/03/04 01:16:57;;;;;;;66.07;37.78;;;;;;;;;;5099292;28;20031;-91
2023/03/04 01:19:23;;;;;;;60.92;37.25;;;;;;;;;;5098143;28;20020;-91
2023/03/04 01:21:49;;;;;;;57.67;35.65;;;;;;;;;;5099125;28;20020;-89
2023/03/04 01:24:15;;;;;;;62.20;36.78;;;;;;;;;;5097783;28;20024;-90
2023/03/04 01:26:41;;;;;;;66.30;37.63;;;;;;;;;;5097173;28;20063;-90
2023/03/04 01:29:07;;;;;;;67.22;37.03;;;;;;;;;;5098932;28;20036;-90
2023/03/04 01:31:33;;;;;;;60.90;37.30;;;;;;;;;;5098979;28;20028;-89
2023/03/04 01:33:59;;;;;;;62.90;36.33;;;;;;;;;;5097347;28;20058;-90
2023/03/04 01:36:26;;;;;;;64.40;36.45;;;;;;;;;;5097670;28;20035;-90
2023/03/04 01:42:18;;;;;;;61.22;36.58;;;;;;;;;;5098459;28;20359;-92
2023/03/04 01:44:45;;;;;;;66.20;37.15;;;;;;;;;;5098481;28;20028;-90
2023/03/04 01:47:11;;;;;;;60.53;37.20;;;;;;;;;;5097489;28;20052;-90
2023/03/04 01:49:37;;;;;;;62.45;35.80;;;;;;;;;;5098026;28;20020;-90
2023/03/04 01:52:03;;;;;;;59.10;35.13;;;;;;;;;;5092778;28;20035;-89
2023/03/04 01:57:47;;;;;;;59.83;35.35;;;;;;;;;;5081686;28;20317;-90
2023/03/04 02:00:30;;;;;;;59.80;36.58;;;;;;;;;;5077652;28;20032;-91
2023/03/04 02:03:01;;;;;;;61.28;35.70;;;;;;;;;;5060216;28;20124;-90
2023/03/04 02:05:28;;;;;;;63.17;37.88;;;;;;;;;;5060187;28;20020;-92
2023/03/04 02:07:55;;;;;;;66.40;38.53;;;;;;;;;;5060105;28;20032;-91
2023/03/04 02:10:21;;;;;;;63.72;36.20;;;;;;;;;;5060227;28;20024;-92
2023/03/04 02:12:47;;;;;;;56.53;35.83;;;;;;;;;;5077315;28;20032;-90
2023/03/04 02:15:13;;;;;;;62.58;39.10;;;;;;;;;;5078087;28;20047;-91
2023/03/04 02:17:39;;;;;;;66.60;38.40;;;;;;;;;;5059495;28;20070;-92
2023/03/04 02:20:09;;;;;;;59.08;37.20;;;;;;;;;;5059252;28;20025;-91
2023/03/04 02:22:37;;;;;;;59.17;36.35;;;;;;;;;;5077933;28;20125;-90
2023/03/04 02:25:25;;;;;;;62.10;35.95;;;;;;;;;;5077518;28;20021;-90
2023/03/04 02:27:51;;;;;;;54.17;34.75;;;;;;;;;;5077524;28;20044;-89
2023/03/04 02:30:20;;;;;;;62.60;35.63;;;;;;;;;;5060149;28;20043;-91
2023/03/04 02:32:47;;;;;;;55.53;33.85;;;;;;;;;;5059904;28;20024;-90
2023/03/04 02:35:16;;;;;;;61.60;35.97;;;;;;;;;;5077667;28;20031;-89
2023/03/04 02:37:43;;;;;;;58.28;34.55;;;;;;;;;;5077713;28;20319;-90
2023/03/04 02:43:12;;;;;;;60.05;34.42;;;;;;;;;;5077480;28;20028;-91
2023/03/04 02:45:42;;;;;;;55.67;34.17;;;;;;;;;;5077566;28;20043;-89
2023/03/04 02:48:08;;;;;;;57.63;33.83;;;;;;;;;;5059521;28;20036;-88
2023/03/04 02:50:36;;;;;;;57.45;33.95;;;;;;;;;;5077557;28;20028;-88
2023/03/04 02:53:02;;;;;;;63.35;36.70;;;;;;;;;;5041804;28;20048;-88
2023/03/04 02:55:28;;;;;;;66.15;39.47;;;;;;;;;;5057547;28;20033;-88
2023/03/04 02:57:54;;;;;;;57.90;35.33;;;;;;;;;;5058870;28;20334;-89
2023/03/04 03:00:20;;;;;;;56.92;34.55;;;;;;;;;;5059451;28;20044;-89
2023/03/04 03:02:46;;;;;;;55.78;34.60;;;;;;;;;;5077445;28;20107;-89
2023/03/04 03:05:13;;;;;;;52.28;32.13;;;;;;;;;;5077581;28;20027;-89
2023/03/04 03:07:39;;;;;;;55.15;32.97;;;;;;;;;;5077680;28;20021;-89
2023/03/04 03:10:05;;;;;;;63.40;33.92;;;;;;;;;;5059635;28;20025;-90
2023/03/04 03:12:31;;;;;;;60.38;32.88;;;;;;;;;;5077308;28;20025;-89
2023/03/04 03:14:57;;;;;;;62.33;34.00;;;;;;;;;;5059518;28;20032;-90
2023/03/04 03:17:23;;;;;;;58.22;33.95;;;;;;;;;;5077229;28;20043;-92
2023/03/04 03:19:49;;;;;;;55.88;33.30;;;;;;;;;;5077155;28;20052;-90
2023/03/04 03:22:15;;;;;;;57.92;32.92;;;;;;;;;;5059392;28;20021;-90
2023/03/04 03:27:45;;;;;;;59.50;34.05;;;;;;;;;;5077230;28;20024;-91
2023/03/04 03:30:12;;;;;;;60.75;35.25;;;;;;;;;;5077773;28;20780;-92
2023/03/04 03:32:38;;;;;;;59.33;35.25;;;;;;;;;;5062975;28;20039;-91
2023/03/04 03:35:04;;;;;;;61.40;34.03;;;;;;;;;;5062428;28;20040;-91
2023/03/04 03:37:30;;;;;;;53.97;33.53;;;;;;;;;;5080554;28;20354;-91
2023/03/04 03:42:59;;;;;;;59.35;34.60;;;;;;;;;;5080824;28;20032;-92
2023/03/04 03:45:25;;;;;;;59.78;34.17;;;;;;;;;;5080422;28;20048;-93
2023/03/04 03:47:51;;;;;;;59.33;32.47;;;;;;;;;;5080232;28;20410;-93
2023/03/04 03:50:17;;;;;;;59.45;34.92;;;;;;;;;;5080134;28;20025;-92
2023/03/04 03:52:44;;;;;;;58.95;33.25;;;;;;;;;;5080411;28;20024;-92
2023/03/04 03:55:10;;;;;;;58.28;34.85;;;;;;;;;;5080149;28;20020;-92
2023/03/04 03:57:36;;;;;;;63.28;35.05;;;;;;;;;;5080274;28;20028;-91
2023/03/04 04:00:02;;;;;;;65.30;33.92;;;;;;;;;;5079974;28;20060;-91
2023/03/04 04:02:28;;;;;;;59.28;34.30;;;;;;;;;;5080519;28;20103;-91
2023/03/04 04:04:54;;;;;;;57.72;34.20;;;;;;;;;;5080255;28;20044;-91
2023/03/04 04:07:20;;;;;;;57.22;34.33;;;;;;;;;;5080209;28;20032;-92
2023/03/04 04:09:47;;;;;;;61.58;34.20;;;;;;;;;;5079886;28;20115;-93
2023/03/04 04:12:14;;;;;;;55.97;32.70;;;;;;;;;;5079983;28;20028;-91
2023/03/04 04:14:40;;;;;;;58.42;34.83;;;;;;;;;;5080087;28;20024;-93
2023/03/04 04:17:06;;;;;;;57.67;33.97;;;;;;;;;;5080240;28;20029;-93
2023/03/04 04:19:32;;;;;;;57.20;33.25;;;;;;;;;;5079833;28;20036;-94
2023/03/04 04:21:58;;;;;;;55.53;32.53;;;;;;;;;;5079903;28;20025;-93
2023/03/04 04:24:30;;;;;;;57.47;32.08;;;;;;;;;;5062170;28;20016;-93
2023/03/04 04:26:57;;;;;;;57.88;33.20;;;;;;;;;;5094554;28;20024;-90
2023/03/04 04:29:23;;;;;;;58.15;33.65;;;;;;;;;;5099959;28;20107;-90
2023/03/04 04:31:49;;;;;;;59.35;33.88;;;;;;;;;;5081904;28;20123;-90
2023/03/04 04:34:15;;;;;;;58.42;31.92;;;;;;;;;;5099941;28;20028;-93
2023/03/04 04:36:41;;;;;;;54.72;31.40;;;;;;;;;;5099853;28;20017;-91
2023/03/04 04:45:14;;;;;;;57.58;33.15;;;;;;;;;;5099627;28;20057;-91
2023/03/04 04:47:40;;;;;;;55.72;32.63;;;;;;;;;;5099715;28;20322;-91
2023/03/04 04:50:06;;;;;;;52.88;30.35;;;;;;;;;;5081583;28;20024;-90
2023/03/04 04:52:32;;;;;;;55.25;31.52;;;;;;;;;;5099680;28;20024;-91
2023/03/04 04:54:58;;;;;;;53.03;31.15;;;;;;;;;;5080788;28;20039;-91
2023/03/04 04:57:24;;;;;;;57.70;33.75;;;;;;;;;;5098853;28;20032;-93
2023/03/04 04:59:51;;;;;;;60.13;33.47;;;;;;;;;;5081324;28;20052;-91
2023/03/04 05:02:17;;;;;;;57.83;33.10;;;;;;;;;;5081174;28;20032;-90
2023/03/04 05:04:43;;;;;;;54.15;33.85;;;;;;;;;;5099117;28;20103;-90
2023/03/04 05:07:09;;;;;;;53.83;32.58;;;;;;;;;;5081358;28;20079;-90
2023/03/04 05:09:35;;;;;;;58.15;33.80;;;;;;;;;;5099250;28;20036;-89
2023/03/04 05:12:01;;;;;;;54.17;33.08;;;;;;;;;;5099083;28;20024;-89
2023/03/04 05:14:27;;;;;;;57.13;32.72;;;;;;;;;;5099085;28;20035;-90
2023/03/04 05:16:53;;;;;;;62.08;36.65;;;;;;;;;;5099598;28;20115;-91
2023/03/04 05:19:20;;;;;;;57.85;34.20;;;;;;;;;;5099088;28;20020;-91
2023/03/04 05:21:46;;;;;;;62.15;37.20;;;;;;;;;;5081334;28;20036;-90
2023/03/04 05:24:12;;;;;;;65.50;37.67;;;;;;;;;;5098877;28;20406;-89
2023/03/04 05:26:38;;;;;;;66.90;39.50;;;;;;;;;;5098595;28;20071;-90
2023/03/04 05:29:04;;;;;;;65.10;38.08;;;;;;;;;;5076833;28;20136;-91
2023/03/04 05:31:30;;;;;;;62.65;38.13;;;;;;;;;;5078330;28;20024;-91
2023/03/04 05:33:56;;;;;;;65.88;39.13;;;;;;;;;;5078681;28;20166;-90
2023/03/04 05:36:23;;;;;;;62.75;38.72;;;;;;;;;;5078198;28;20410;-90
2023/03/04 05:42:05;;;;;;;59.25;34.70;;;;;;;;;;5078106;28;20047;-90
2023/03/04 05:44:31;;;;;;;62.97;35.38;;;;;;;;;;5078244;28;20044;-92
2023/03/04 05:46:57;;;;;;;60.30;34.65;;;;;;;;;;5078300;28;20291;-90
2023/03/04 05:49:23;;;;;;;57.70;34.63;;;;;;;;;;5086454;28;20265;-91
2023/03/04 05:51:49;;;;;;;60.80;32.83;;;;;;;;;;5098642;28;20030;-92
2023/03/04 05:57:38;;;;;;;66.22;35.58;;;;;;;;;;5098362;28;20027;-92
2023/03/04 06:00:06;;;;;;;66.32;35.47;;;;;;;;;;5080036;28;20063;-90
2023/03/04 06:02:32;;;;;;;73.60;37.70;;;;;;;;;;5098129;28;20025;-90
2023/03/04 06:04:58;;;;;;;68.20;38.38;;;;;;;;;;5098352;28;20348;-91
2023/03/04 06:07:24;;;;;;;61.70;35.10;;;;;;;;;;5080163;28;20071;-90
2023/03/04 06:13:08;;;;;;;63.00;35.53;;;;;;;;;;5098489;28;20062;-90
2023/03/04 06:15:34;;;;;;;61.25;36.28;;;;;;;;;;5080225;28;20028;-91
2023/03/04 06:18:00;;;;;;;62.90;36.50;;;;;;;;;;5079833;28;20036;-91
2023/03/04 06:20:26;;;;;;;63.58;35.60;;;;;;;;;;5080101;28;20123;-91
2023/03/04 06:22:52;;;;;;;66.60;37.53;;;;;;;;;;5097871;28;20410;-90
2023/03/04 06:25:37;;;;;;;65.60;37.13;;;;;;;;;;5098131;28;20402;-91
2023/03/04 06:28:03;;;;;;;68.72;37.15;;;;;;;;;;5072948;28;20016;-91
2023/03/04 06:30:29;;;;;;;78.32;42.05;;;;;;;;;;5059836;28;20037;-90
2023/03/04 06:32:55;;;;;;;69.72;38.83;;;;;;;;;;5060055;28;20418;-89
2023/03/04 06:35:21;;;;;;;65.35;38.97;;;;;;;;;;5070534;28;20033;-90
2023/03/04 06:37:47;;;;;;;65.47;37.95;;;;;;;;;;5059749;28;20028;-90
2023/03/04 06:40:14;;;;;;;65.47;38.97;;;;;;;;;;5077364;28;20028;-90
2023/03/04 06:42:40;;;;;;;73.65;41.75;;;;;;;;;;5059778;28;20025;-91
2023/03/04 06:45:07;;;;;;;81.40;46.63;;;;;;;;;;5077567;28;20025;-90
2023/03/04 06:47:33;;;;;;;79.13;44.38;;;;;;;;;;5077896;28;20035;-90
2023/03/04 06:49:59;;;;;;;68.78;40.42;;;;;;;;;;5059826;28;20432;-91
2023/03/04 06:52:25;;;;;;;74.43;42.03;;;;;;;;;;5059399;28;20354;-90
2023/03/04 06:54:51;;;;;;;72.30;41.50;;;;;;;;;;5077384;28;20024;-91
2023/03/04 06:57:17;;;;;;;70.25;41.15;;;;;;;;;;5059975;28;20062;-90
2023/03/04 06:59:43;;;;;;;68.97;41.97;;;;;;;;;;5059225;28;20040;-90
2023/03/04 07:02:11;;;;;;;73.18;43.58;;;;;;;;;;5071550;28;20041;-91
2023/03/04 07:04:37;;;;;;;65.63;40.63;;;;;;;;;;5077084;28;20051;-90
2023/03/04 07:07:03;;;;;;;63.58;37.88;;;;;;;;;;5088262;28;20043;-90
2023/03/04 07:09:47;;;;;;;68.43;37.92;;;;;;;;;;5063409;28;20021;-90
2023/03/04 07:12:14;;;;;;;78.18;46.75;;;;;;;;;;5080422;28;20062;-90
2023/03/04 07:14:40;;;;;;;146.38;87.93;;;;;;;;;;5085630;28;20021;-91
2023/03/04 07:17:06;;;;;;;185.23;107.97;;;;;;;;;;5063312;28;20119;-91
2023/03/04 07:19:32;;;;;;;122.78;79.68;;;;;;;;;;5081272;28;20096;-88
2023/03/04 07:21:58;;;;;;;86.47;51.58;;;;;;;;;;5099100;28;20103;-88
2023/03/04 07:24:24;;;;;;;79.45;47.58;;;;;;;;;;5091814;28;20020;-88
2023/03/04 07:26:50;;;;;;;77.40;47.47;;;;;;;;;;5081533;28;20012;-88
2023/03/04 07:29:16;;;;;;;88.05;49.40;;;;;;;;;;5080894;28;20028;-90
2023/03/04 07:31:42;;;;;;;87.05;46.90;;;;;;;;;;5090750;28;20028;-90
2023/03/04 07:34:10;;;;;;;84.93;47.65;;;;;;;;;;5083054;28;20028;-86
2023/03/04 07:36:36;;;;;;;85.40;48.03;;;;;;;;;;5101596;28;20050;-95
2023/03/04 07:42:06;;;;;;;77.28;41.80;;;;;;;;;;5095637;28;20070;-84
2023/03/04 07:44:32;;;;;;;74.15;43.70;;;;;;;;;;5081990;28;20036;-85
2023/03/04 07:46:58;;;;;;;79.53;43.22;;;;;;;;;;5066019;28;20330;-85
2023/03/04 07:49:24;;;;;;;76.88;42.88;;;;;;;;;;5073894;28;20406;-85
2023/03/04 07:51:50;;;;;;;74.90;43.05;;;;;;;;;;5095972;28;20024;-84
2023/03/04 07:54:18;;;;;;;79.57;42.88;;;;;;;;;;5094952;28;20088;-84
2023/03/04 07:56:45;;;;;;;76.85;41.85;;;;;;;;;;5099181;28;20032;-84
2023/03/04 07:59:11;;;;;;;80.38;43.55;;;;;;;;;;5100090;28;20044;-85
2023/03/04 08:01:37;;;;;;;81.47;45.67;;;;;;;;;;5100267;28;20136;-83
2023/03/04 08:04:05;;;;;;;86.13;47.45;;;;;;;;;;5082518;28;20024;-85
2023/03/04 08:06:31;;;;;;;85.05;47.15;;;;;;;;;;5081843;28;20422;-85
2023/03/04 08:09:01;;;;;;;86.00;45.95;;;;;;;;;;5099999;28;20043;-85
2023/03/04 08:11:28;;;;;;;89.22;48.63;;;;;;;;;;5081088;28;20020;-85
2023/03/04 08:13:54;;;;;;;87.22;48.13;;;;;;;;;;5098616;28;20278;-85
2023/03/04 08:16:22;;;;;;;87.55;50.17;;;;;;;;;;5080914;28;20497;-85
2023/03/04 08:18:49;;;;;;;79.88;45.53;;;;;;;;;;5099901;28;20036;-85
2023/03/04 08:21:18;;;;;;;88.03;46.90;;;;;;;;;;5082055;28;20027;-84
2023/03/04 08:23:44;;;;;;;84.07;46.95;;;;;;;;;;5099899;28;20074;-84
2023/03/04 08:26:32;;;;;;;89.95;49.28;;;;;;;;;;5086340;28;20016;-84
2023/03/04 08:29:01;;;;;;;92.45;52.40;;;;;;;;;;5099647;28;20027;-84
2023/03/04 08:31:27;;;;;;;88.97;48.00;;;;;;;;;;5099286;28;20036;-85
2023/03/04 08:33:53;;;;;;;84.63;45.95;;;;;;;;;;5094452;28;20137;-84
2023/03/04 08:36:19;;;;;;;84.13;47.47;;;;;;;;;;5099377;28;20059;-85
2023/03/04 08:38:46;;;;;;;84.72;47.67;;;;;;;;;;5086942;28;20417;-85
2023/03/04 08:41:12;;;;;;;76.57;43.42;;;;;;;;;;5077525;28;20166;-85
2023/03/04 08:43:39;;;;;;;76.45;43.50;;;;;;;;;;5094821;28;20040;-85
2023/03/04 08:46:05;;;;;;;87.03;48.60;;;;;;;;;;5078670;28;20040;-85
2023/03/04 08:48:31;;;;;;;78.63;46.17;;;;;;;;;;5084142;28;20024;-85
2023/03/04 08:50:57;;;;;;;77.72;43.88;;;;;;;;;;5066324;28;20319;-85
2023/03/04 08:53:24;;;;;;;67.68;42.10;;;;;;;;;;5078739;28;20035;-83
2023/03/04 08:55:51;;;;;;;77.45;45.75;;;;;;;;;;5088127;28;20414;-84
2023/03/04 08:58:17;;;;;;;71.50;41.40;;;;;;;;;;5106739;28;20165;-84
2023/03/04 09:00:47;;;;;;;68.25;41.08;;;;;;;;;;5098664;28;20040;-84
2023/03/04 09:03:13;;;;;;;64.47;36.95;;;;;;;;;;5082785;28;20040;-84
2023/03/04 09:05:40;;;;;;;64.30;37.88;;;;;;;;;;5079619;28;20043;-84
2023/03/04 09:08:06;;;;;;;65.72;38.33;;;;;;;;;;5090812;28;20031;-84
2023/03/04 09:13:35;;;;;;;74.57;43.95;;;;;;;;;;5083777;28;20035;-91
2023/03/04 09:16:02;;;;;;;78.55;46.85;;;;;;;;;;5065299;28;20039;-91
2023/03/04 09:18:28;;;;;;;90.07;48.03;;;;;;;;;;5080991;28;20115;-90
2023/03/04 09:20:54;;;;;;;69.82;41.25;;;;;;;;;;5061356;28;20434;-93
2023/03/04 09:23:21;;;;;;;70.88;42.60;;;;;;;;;;5079834;28;20031;-92
2023/03/04 09:25:48;;;;;;;81.40;46.70;;;;;;;;;;5060749;28;20299;-92
2023/03/04 09:28:14;;;;;;;78.18;44.75;;;;;;;;;;5078069;28;20035;-94
2023/03/04 09:30:41;;;;;;;86.05;46.85;;;;;;;;;;5078534;28;20029;-92
2023/03/04 09:33:07;;;;;;;77.13;42.90;;;;;;;;;;5078175;28;20033;-91
2023/03/04 09:35:33;;;;;;;78.80;42.08;;;;;;;;;;5078407;28;20413;-91
2023/03/04 09:37:59;;;;;;;64.45;40.17;;;;;;;;;;5078399;28;20016;-91
2023/03/04 09:40:37;;;;;;;60.10;35.20;;;;;;;;;;5078212;28;20025;-90
2023/03/04 09:43:04;;;;;;;68.22;38.75;;;;;;;;;;5060603;28;20043;-92
2023/03/04 09:45:37;;;;;;;63.00;38.38;;;;;;;;;;5078890;28;20076;-92
2023/03/04 09:48:05;;;;;;;66.05;38.63;;;;;;;;;;5078330;28;20020;-93
2023/03/04 09:50:33;;;;;;;70.30;41.72;;;;;;;;;;5078122;28;20024;-91
2023/03/04 09:53:28;;;;;;;67.45;41.75;;;;;;;;;;5078116;28;20370;-92
2023/03/04 09:55:55;;;;;;;65.65;37.13;;;;;;;;;;4977697;28;20287;-91
2023/03/04 09:58:21;;;;;;;74.93;45.13;;;;;;;;;;4974212;28;20069;-92
2023/03/04 10:00:54;;;;;;;62.67;37.15;;;;;;;;;;4958275;29;20042;-93
2023/03/04 10:03:43;;;;;;;54.40;31.95;;;;;;;;;;4958243;29;20030;-92
2023/03/04 10:06:11;;;;;;;59.13;34.25;;;;;;;;;;4950570;29;20418;-91
2023/03/04 10:08:39;;;;;;;53.60;30.73;;;;;;;;;;4958075;29;20111;-93
2023/03/04 10:11:27;;;;;;;48.75;28.33;;;;;;;;;;4958137;29;20035;-92
2023/03/04 10:13:53;;;;;;;56.17;31.63;;;;;;;;;;4958125;29;20055;-93
2023/03/04 10:16:22;;;;;;;65.90;38.22;;;;;;;;;;4958090;29;20442;-85
2023/03/04 10:18:52;;;;;;;87.95;47.85;;;;;;;;;;4957931;29;20039;-93
2023/03/04 10:21:21;;;;;;;55.15;32.75;;;;;;;;;;4957984;29;20082;-91
2023/03/04 10:23:48;;;;;;;48.58;28.70;;;;;;;;;;4958196;29;20023;-92
2023/03/04 10:26:15;;;;;;;51.63;29.98;;;;;;;;;;4957939;29;20381;-94
2023/03/04 10:28:42;;;;;;;53.67;32.20;;;;;;;;;;4957969;29;20503;-92
2023/03/04 10:31:08;;;;;;;51.28;29.30;;;;;;;;;;4961398;28;20446;-93
2023/03/04 10:33:35;;;;;;;52.45;31.60;;;;;;;;;;5057528;28;20028;-92
2023/03/04 10:36:03;;;;;;;47.83;28.38;;;;;;;;;;5040600;28;20025;-92
2023/03/04 10:38:31;;;;;;;51.28;29.88;;;;;;;;;;5057606;28;20017;-92
2023/03/04 10:40:58;;;;;;;58.70;32.10;;;;;;;;;;5059728;28;20029;-92
2023/03/04 10:43:24;;;;;;;51.55;29.35;;;;;;;;;;5044733;28;20021;-93
2023/03/04 10:45:54;;;;;;;57.35;30.63;;;;;;;;;;5045716;28;20037;-92
2023/03/04 10:48:22;;;;;;;51.35;30.05;;;;;;;;;;5061451;28;20292;-92
2023/03/04 10:50:48;;;;;;;49.10;27.95;;;;;;;;;;5061330;28;20021;-92
2023/03/04 10:53:32;;;;;;;50.05;29.63;;;;;;;;;;5061645;28;20063;-92
2023/03/04 10:55:58;;;;;;;55.63;31.38;;;;;;;;;;5061710;28;20083;-93
2023/03/04 10:58:24;;;;;;;51.15;30.17;;;;;;;;;;5065359;28;20048;-92
2023/03/04 11:01:00;;;;;;;51.75;29.85;;;;;;;;;;5081169;28;20028;-91
2023/03/04 11:03:26;;;;;;;53.63;29.95;;;;;;;;;;5081748;28;20017;-93
2023/03/04 11:06:06;;;;;;;49.08;30.73;;;;;;;;;;5082451;28;20109;-91
2023/03/04 11:08:32;;;;;;;54.67;32.28;;;;;;;;;;5082181;28;20040;-92
2023/03/04 11:11:37;;;;;;;53.65;31.83;;;;;;;;;;5081715;28;20111;-92
2023/03/04 11:14:13;;;;;;;46.97;28.60;;;;;;;;;;4980806;28;20031;-92
2023/03/04 11:16:39;;;;;;;43.97;26.80;;;;;;;;;;4980495;28;20030;-91
2023/03/04 11:19:10;;;;;;;49.63;27.55;;;;;;;;;;4980579;28;20045;-92
2023/03/04 11:21:39;;;;;;;42.60;26.53;;;;;;;;;;4980864;28;20097;-92
2023/03/04 11:24:20;;;;;;;51.47;28.60;;;;;;;;;;4980846;28;20027;-90
2023/03/04 11:26:48;;;;;;;47.30;28.70;;;;;;;;;;4980451;28;20030;-91
2023/03/04 11:29:14;;;;;;;46.83;29.85;;;;;;;;;;4980454;28;20035;-91
2023/03/04 11:32:01;;;;;;;47.47;27.63;;;;;;;;;;4980799;28;20333;-91
2023/03/04 11:34:27;;;;;;;54.22;31.55;;;;;;;;;;4964460;28;20179;-91
2023/03/04 11:37:15;;;;;;;54.45;31.23;;;;;;;;;;4980646;28;20058;-92
2023/03/04 11:39:43;;;;;;;54.65;34.90;;;;;;;;;;4980461;28;20109;-92
2023/03/04 11:42:16;;;;;;;56.38;33.67;;;;;;;;;;4980165;28;20034;-92
2023/03/04 11:44:41;;;;;;;;;;;;;;;;;;5027885;28;20433;-92
2023/03/04 11:47:17;;;;;;;56.92;35.72;;;;;;;;;;5080332;28;19909;-91
2023/03/04 11:49:49;;;;;;;49.90;31.67;;;;;;;;;;5080369;28;20028;-91
2023/03/04 11:52:15;;;;;;;;;;;;;;;;;;5080850;28;20403;-92
2023/03/04 11:55:01;;;;;;;52.58;31.33;;;;;;;;;;5080381;28;19911;-92
2023/03/04 11:57:43;;;;;;;52.00;29.55;;;;;;;;;;5062510;28;20024;-94
2023/03/04 12:00:27;;;;;;;58.25;34.05;;;;;;;;;;5062442;28;20060;-91
2023/03/04 12:03:03;;;;;;;50.05;31.00;;;;;;;;;;5080043;28;20028;-92
2023/03/04 12:06:07;;;;;;;49.45;30.63;;;;;;;;;;5080633;28;20016;-91
2023/03/04 12:08:50;;;;;;;42.40;26.73;;;;;;;;;;4979741;28;20019;-92
2023/03/04 12:11:39;;;;;;;44.33;26.95;;;;;;;;;;4999393;28;20055;-93
2023/03/04 12:14:15;;;;;;;42.40;26.88;;;;;;;;;;4980209;28;20039;-94
2023/03/04 12:16:41;;;;;;;44.15;28.00;;;;;;;;;;4979584;28;20031;-94
2023/03/04 12:19:26;;;;;;;42.70;26.77;;;;;;;;;;4998827;28;20038;-94
2023/03/04 12:22:11;;;;;;;41.95;26.08;;;;;;;;;;4978942;28;20031;-94
2023/03/04 12:24:48;;;;;;;37.90;24.58;;;;;;;;;;4979620;28;20071;-94
2023/03/04 12:27:14;;;;;;;38.95;25.50;;;;;;;;;;4979468;28;20035;-94
2023/03/04 12:30:04;;;;;;;38.90;25.00;;;;;;;;;;4979190;28;20035;-94
2023/03/04 12:32:33;;;;;;;46.70;27.70;;;;;;;;;;4980928;28;20058;-94
2023/03/04 12:35:17;;;;;;;34.58;22.80;;;;;;;;;;4979326;28;20038;-94
2023/03/04 12:37:46;;;;;;;35.97;23.20;;;;;;;;;;4979077;28;20437;-93
2023/03/04 12:40:19;;;;;;;42.63;27.38;;;;;;;;;;5069053;28;20032;-93
2023/03/04 12:42:53;;;;;;;40.65;25.40;;;;;;;;;;5061889;28;20052;-94
2023/03/04 12:45:38;;;;;;;36.15;23.52;;;;;;;;;;5079543;28;20025;-94
2023/03/04 12:48:04;;;;;;;34.17;21.40;;;;;;;;;;5061425;28;20032;-94
2023/03/04 12:50:30;;;;;;;34.35;22.10;;;;;;;;;;5079935;28;20034;-92
2023/03/04 12:52:59;;;;;;;35.45;21.33;;;;;;;;;;5065331;28;20020;-91
2023/03/04 12:55:35;;;;;;;34.20;22.98;;;;;;;;;;5081771;28;20123;-92
2023/03/04 12:58:01;;;;;;;31.77;21.13;;;;;;;;;;5098910;28;20050;-92
2023/03/04 13:00:39;;;;;;;39.80;22.92;;;;;;;;;;5099599;28;20107;-92
2023/03/04 13:03:08;;;;;;;38.72;24.90;;;;;;;;;;5081189;28;20040;-93
2023/03/04 13:05:44;;;;;;;37.05;22.20;;;;;;;;;;5081996;28;20024;-93
2023/03/04 13:08:25;;;;;;;31.45;19.38;;;;;;;;;;5099179;28;20103;-92
2023/03/04 13:10:53;;;;;;;33.40;20.40;;;;;;;;;;5100530;28;20103;-95
2023/03/04 13:13:32;;;;;;;515.20;48.47;;;;;;;;;;5100603;28;20032;-95
2023/03/04 13:16:02;;;;;;;36.72;19.35;;;;;;;;;;5081372;28;20038;-94
2023/03/04 13:18:28;;;;;;;39.60;18.65;;;;;;;;;;5081399;28;20131;-94
2023/03/04 13:21:13;;;;;;;30.50;19.17;;;;;;;;;;5081606;28;20123;-93
2023/03/04 13:23:40;;;;;;;22.13;13.50;;;;;;;;;;5081453;28;20024;-94
2023/03/04 13:26:06;;;;;;;27.45;14.77;;;;;;;;;;5081632;28;20016;-94
2023/03/04 13:28:34;;;;;;;21.73;15.02;;;;;;;;;;5081419;28;20024;-93
2023/03/04 13:31:09;;;;;;;23.23;13.77;;;;;;;;;;5099166;28;20042;-94
2023/03/04 13:33:35;;;;;;;20.55;13.48;;;;;;;;;;5081404;28;20040;-94
2023/03/04 13:36:04;;;;;;;26.00;17.73;;;;;;;;;;5099014;28;20073;-94
2023/03/04 13:38:30;;;;;;;22.98;15.02;;;;;;;;;;5099259;28;20024;-94
2023/03/04 13:41:14;;;;;;;26.90;16.02;;;;;;;;;;5098580;28;20028;-95
2023/03/04 13:43:42;;;;;;;24.52;14.70;;;;;;;;;;5099103;28;20025;-94
2023/03/04 13:46:22;;;;;;;24.30;14.73;;;;;;;;;;5098352;28;20016;-94
2023/03/04 13:48:51;;;;;;;25.50;14.50;;;;;;;;;;5098352;28;20081;-95
2023/03/04 13:51:36;;;;;;;19.42;11.95;;;;;;;;;;5098242;28;20034;-92
2023/03/04 13:54:03;;;;;;;15.40;10.30;;;;;;;;;;5098742;28;20406;-94
2023/03/04 13:56:36;;;;;;;20.27;10.07;;;;;;;;;;5098369;28;20028;-94
2023/03/04 13:59:08;;;;;;;18.90;10.98;;;;;;;;;;5092753;28;20090;-89
2023/03/04 14:01:34;;;;;;;19.95;12.00;;;;;;;;;;5089172;28;20051;-96
2023/03/04 14:04:01;;;;;;;21.80;14.30;;;;;;;;;;5063775;28;20039;-93
2023/03/04 14:06:29;;;;;;;19.70;12.55;;;;;;;;;;5097981;28;20103;-93
2023/03/04 14:08:55;;;;;;;17.45;12.23;;;;;;;;;;5092733;28;20031;-92
2023/03/04 14:11:30;;;;;;;29.88;11.68;;;;;;;;;;5096977;28;20020;-93
2023/03/04 14:13:57;;;;;;;17.05;11.32;;;;;;;;;;5078210;28;20036;-89
2023/03/04 14:16:26;;;;;;;20.17;12.85;;;;;;;;;;5078689;28;20074;-89
2023/03/04 14:19:00;;;;;;;30.05;15.75;;;;;;;;;;5079708;28;20028;-88
2023/03/04 14:21:27;;;;;;;30.88;17.10;;;;;;;;;;5097978;28;20032;-88
2023/03/04 14:24:00;;;;;;;25.95;15.15;;;;;;;;;;5097034;28;20039;-90
2023/03/04 14:26:26;;;;;;;23.45;14.73;;;;;;;;;;5100060;28;20020;-88
2023/03/04 14:28:56;;;;;;;25.92;14.27;;;;;;;;;;5079867;28;20028;-90
2023/03/04 14:31:24;;;;;;;29.17;15.88;;;;;;;;;;5079010;28;20032;-90
2023/03/04 14:33:51;;;;;;;30.95;17.25;;;;;;;;;;5096243;28;20070;-90
2023/03/04 14:36:19;;;;;;;27.20;16.08;;;;;;;;;;5078475;28;20123;-86
2023/03/04 14:38:51;;;;;;;25.25;15.70;;;;;;;;;;5093126;28;20023;-88
2023/03/04 14:41:54;;;;;;;29.75;17.60;;;;;;;;;;5079350;28;20035;-88
2023/03/04 14:44:23;;;;;;;34.10;22.67;;;;;;;;;;5091260;28;20035;-89
2023/03/04 14:46:53;;;;;;;40.95;26.90;;;;;;;;;;5074435;28;20379;-89
2023/03/04 14:49:19;;;;;;;38.53;23.23;;;;;;;;;;5064923;28;20029;-89
2023/03/04 14:51:47;;;;;;;37.55;23.02;;;;;;;;;;5080320;28;20051;-89
2023/03/04 14:54:27;;;;;;;30.15;18.55;;;;;;;;;;5062367;28;20028;-90
2023/03/04 14:56:53;;;;;;;31.58;21.15;;;;;;;;;;5096894;28;20028;-88
2023/03/04 14:59:27;;;;;;;31.20;19.55;;;;;;;;;;5079682;28;20090;-88
2023/03/04 15:01:54;;;;;;;35.42;18.58;;;;;;;;;;5086533;28;20033;-88
2023/03/04 15:04:20;;;;;;;33.75;20.58;;;;;;;;;;5076225;28;20017;-88
2023/03/04 15:06:50;;;;;;;37.00;22.42;;;;;;;;;;5079289;28;20016;-92
2023/03/04 15:09:21;;;;;;;53.55;32.92;;;;;;;;;;5095554;28;20028;-91
2023/03/04 15:12:06;;;;;;;35.38;22.63;;;;;;;;;;5073012;28;20123;-90
2023/03/04 15:14:42;;;;;;;36.42;24.33;;;;;;;;;;5071563;28;20028;-88
2023/03/04 15:17:27;;;;;;;44.08;27.52;;;;;;;;;;5079164;28;20073;-80
2023/03/04 15:20:06;;;;;;;45.50;28.63;;;;;;;;;;5091157;28;20028;-87
2023/03/04 15:22:36;;;;;;;49.70;31.35;;;;;;;;;;5088802;28;20319;-89